createdAt,value
2018-04-10T00:01:58.090Z,64.92
2018-04-10T00:04:26.012Z,65.64
2018-04-10T00:06:53.931Z,66.34
2018-04-10T00:09:21.868Z,67.04
2018-04-10T00:11:49.796Z,67.05
2018-04-10T00:14:17.813Z,66.62
2018-04-10T00:16:45.823Z,67.05
2018-04-10T00:19:13.791Z,67.46
2018-04-10T00:21:43.483Z,67.43
2018-04-10T00:24:11.476Z,67.60
2018-04-10T00:26:39.478Z,67.99
2018-04-10T00:29:08.263Z,67.81
2018-04-10T00:31:36.251Z,67.25
2018-04-10T00:34:05.251Z,68.43
2018-04-10T00:36:33.230Z,68.41
2018-04-10T00:39:01.203Z,67.74
2018-04-10T00:41:29.198Z,67.71
2018-04-10T00:43:57.183Z,68.55
2018-04-10T00:46:25.183Z,69.59
2018-04-10T00:48:53.157Z,69.19
2018-04-10T00:51:21.143Z,68.99
2018-04-10T00:53:49.136Z,69.62
2018-04-10T00:56:17.895Z,69.42
2018-04-10T00:58:46.536Z,69.87
2018-04-10T01:01:14.504Z,69.36
2018-04-10T01:03:42.485Z,69.46
2018-04-10T01:06:10.467Z,69.65
2018-04-10T01:08:38.468Z,69.74
2018-04-10T01:11:07.216Z,70.00
2018-04-10T01:13:35.231Z,70.26
2018-04-10T01:16:03.224Z,70.39
2018-04-10T01:18:31.219Z,71.01
2018-04-10T01:20:59.908Z,70.51
2018-04-10T01:23:27.903Z,70.71
2018-04-10T01:25:56.702Z,71.03
2018-04-10T01:28:24.703Z,71.35
2018-04-10T01:30:52.675Z,71.38
2018-04-10T01:33:20.660Z,71.67
2018-04-10T01:35:48.979Z,72.10
2018-04-10T01:38:17.077Z,71.59
2018-04-10T01:40:45.054Z,72.03
2018-04-10T01:43:13.040Z,72.72
2018-04-10T01:45:41.007Z,72.84
2018-04-10T01:48:08.999Z,72.83
2018-04-10T01:50:36.980Z,72.71
2018-04-10T01:53:05.779Z,72.89
2018-04-10T01:55:33.766Z,73.12
2018-04-10T01:58:01.759Z,73.05
2018-04-10T02:00:29.743Z,73.27
2018-04-10T02:02:57.735Z,73.09
2018-04-10T02:05:25.719Z,73.23
2018-04-10T02:07:53.882Z,73.80
2018-04-10T02:10:21.879Z,73.43
2018-04-10T02:21:22.811Z,73.18
2018-04-10T02:23:50.823Z,72.96
2018-04-10T02:26:18.817Z,73.12
2018-04-10T02:28:46.799Z,72.84
2018-04-10T02:31:14.792Z,73.24
2018-04-10T02:33:42.799Z,73.06
2018-04-10T02:36:10.787Z,72.97
2018-04-10T02:38:38.774Z,72.66
2018-04-10T02:41:06.769Z,72.40
2018-04-10T02:43:34.747Z,71.87
2018-04-10T02:46:02.831Z,71.71
2018-04-10T02:48:30.824Z,71.80
2018-04-10T02:50:58.840Z,71.51
2018-04-10T02:53:26.827Z,72.06
2018-04-10T02:55:54.819Z,72.26
2018-04-10T02:58:22.824Z,72.03
2018-04-10T03:00:50.802Z,71.71
2018-04-10T03:03:19.168Z,71.75
2018-04-10T03:05:47.169Z,71.77
2018-04-10T03:08:15.161Z,72.12
2018-04-10T03:10:44.059Z,71.65
2018-04-10T03:13:13.110Z,71.87
2018-04-10T03:15:41.091Z,72.16
2018-04-10T03:18:09.082Z,71.78
2018-04-10T03:20:37.076Z,71.70
2018-04-10T03:23:05.076Z,72.00
2018-04-10T03:25:33.063Z,71.64
2018-04-10T03:28:01.047Z,71.81
2018-04-10T03:30:29.033Z,71.53
2018-04-10T03:32:57.047Z,70.99
2018-04-10T03:35:25.110Z,71.25
2018-04-10T03:37:53.109Z,71.32
2018-04-10T03:40:21.713Z,73.33
2018-04-10T03:42:49.862Z,75.44
2018-04-10T03:45:17.871Z,70.86
2018-04-10T03:47:45.856Z,71.55
2018-04-10T03:50:13.869Z,72.09
2018-04-10T03:52:41.875Z,72.39
2018-04-10T03:55:10.756Z,72.50
2018-04-10T03:57:38.792Z,73.59
2018-04-10T04:00:06.799Z,73.06
2018-04-10T04:02:34.805Z,73.51
2018-04-10T04:05:02.961Z,73.67
2018-04-10T04:07:30.948Z,73.19
2018-04-10T04:09:58.949Z,72.89
2018-04-10T04:12:27.231Z,73.51
2018-04-10T04:14:55.224Z,73.09
2018-04-10T04:17:36.114Z,72.67
2018-04-10T04:20:16.021Z,73.30
2018-04-10T04:22:43.999Z,73.38
2018-04-10T04:25:12.752Z,73.51
2018-04-10T04:27:40.744Z,73.90
2018-04-10T04:30:09.271Z,74.28
2018-04-10T04:32:37.247Z,74.51
2018-04-10T04:35:05.283Z,74.47
2018-04-10T04:37:33.343Z,74.59
2018-04-10T04:40:01.339Z,74.07
2018-04-10T04:42:29.331Z,73.72
2018-04-10T04:44:57.331Z,73.48
2018-04-10T04:47:25.349Z,72.94
2018-04-10T04:49:53.348Z,72.63
2018-04-10T04:52:21.350Z,72.87
2018-04-10T04:54:49.361Z,71.77
2018-04-10T04:57:17.340Z,72.09
2018-04-10T04:59:45.337Z,72.33
2018-04-10T05:02:13.328Z,72.06
2018-04-10T05:07:41.418Z,71.26
2018-04-10T05:10:15.382Z,71.36
2018-04-10T05:12:49.128Z,71.09
2018-04-10T05:15:23.090Z,70.47
2018-04-10T05:17:57.708Z,70.42
2018-04-10T05:20:31.699Z,70.64
2018-04-10T05:23:05.704Z,70.26
2018-04-10T05:25:39.707Z,70.29
2018-04-10T05:28:13.824Z,69.74
2018-04-10T05:30:47.740Z,69.35
2018-04-10T05:33:22.089Z,69.94
2018-04-10T05:35:56.010Z,69.47
2018-04-10T05:38:30.019Z,69.36
2018-04-10T05:41:03.683Z,69.23
2018-04-10T05:43:37.462Z,69.14
2018-04-10T05:46:11.100Z,68.95
2018-04-10T05:48:44.779Z,68.65
2018-04-10T05:51:19.394Z,67.94
2018-04-10T05:53:53.490Z,67.59
2018-04-10T05:56:27.239Z,68.11
2018-04-10T05:59:01.103Z,70.03
2018-04-10T06:01:34.778Z,68.12
2018-04-10T06:04:08.468Z,67.46
2018-04-10T06:06:42.247Z,67.17
2018-04-10T06:09:15.984Z,67.27
2018-04-10T06:11:49.862Z,66.61
2018-04-10T06:14:23.475Z,65.90
2018-04-10T06:16:57.235Z,65.53
2018-04-10T06:19:30.979Z,65.81
2018-04-10T06:22:04.790Z,65.37
2018-04-10T06:24:39.940Z,65.19
2018-04-10T06:27:13.502Z,65.24
2018-04-10T06:29:47.380Z,64.60
2018-04-10T06:32:21.204Z,64.50
2018-04-10T06:34:55.047Z,63.74
2018-04-10T06:37:29.406Z,63.56
2018-04-10T06:40:03.401Z,62.80
2018-04-10T06:42:37.532Z,63.21
2018-04-10T06:45:11.624Z,62.99
2018-04-10T06:47:45.480Z,62.47
2018-04-10T06:50:19.016Z,61.76
2018-04-10T06:52:52.627Z,61.54
2018-04-10T06:55:26.128Z,60.58
2018-04-10T06:57:59.937Z,60.50
2018-04-10T07:00:33.634Z,60.38
2018-04-10T07:03:07.250Z,59.91
2018-04-10T07:05:40.904Z,58.32
2018-04-10T07:08:14.746Z,57.89
2018-04-10T07:10:48.731Z,57.96
2018-04-10T07:13:22.564Z,57.03
2018-04-10T07:15:56.127Z,55.82
2018-04-10T07:18:29.835Z,55.72
2018-04-10T07:21:03.466Z,54.43
2018-04-10T07:23:37.084Z,54.89
2018-04-10T07:26:10.927Z,54.91
2018-04-10T07:28:44.715Z,54.07
2018-04-10T07:31:18.307Z,54.06
2018-04-10T07:33:52.471Z,54.13
2018-04-10T07:36:26.060Z,53.44
2018-04-10T07:38:59.707Z,53.84
2018-04-10T07:41:33.496Z,52.78
2018-04-10T07:44:07.375Z,51.18
2018-04-10T07:46:41.568Z,51.39
2018-04-10T07:49:15.533Z,50.47
2018-04-10T07:51:49.424Z,50.80
2018-04-10T07:54:23.500Z,49.27
2018-04-10T07:56:57.729Z,49.77
2018-04-10T07:59:31.500Z,49.78
2018-04-10T08:02:05.340Z,50.24
2018-04-10T08:04:39.119Z,50.72
2018-04-10T08:07:12.797Z,47.99
2018-04-10T08:09:46.578Z,47.90
2018-04-10T08:12:20.192Z,47.85
2018-04-10T08:14:53.835Z,48.49
2018-04-10T08:17:27.504Z,48.28
2018-04-10T08:20:01.275Z,48.60
2018-04-10T08:22:35.019Z,48.18
2018-04-10T08:25:08.755Z,50.18
2018-04-10T08:27:42.455Z,49.47
2018-04-10T08:30:16.367Z,49.95
2018-04-10T08:32:50.100Z,49.19
2018-04-10T08:35:23.933Z,49.43
2018-04-10T08:37:57.637Z,50.43
2018-04-10T08:40:31.292Z,50.73
2018-04-10T08:43:05.139Z,50.54
2018-04-10T08:45:39.192Z,49.88
2018-04-10T08:48:12.964Z,48.55
2018-04-10T08:50:46.599Z,49.37
2018-04-10T08:53:21.332Z,48.96
2018-04-10T08:55:55.475Z,49.37
2018-04-10T08:58:29.426Z,48.26
2018-04-10T09:01:03.479Z,48.68
2018-04-10T09:03:37.524Z,46.86
2018-04-10T09:06:11.476Z,47.11
2018-04-10T09:08:45.719Z,47.79
2018-04-10T09:11:19.840Z,47.42
2018-04-10T09:13:54.155Z,47.31
2018-04-10T09:16:27.843Z,48.24
2018-04-10T09:19:01.470Z,47.52
2018-04-10T09:21:35.451Z,47.82
2018-04-10T09:24:09.103Z,48.47
2018-04-10T09:26:42.710Z,48.10
2018-04-10T09:29:16.245Z,47.76
2018-04-10T09:31:50.629Z,47.51
2018-04-10T09:34:24.380Z,48.28
2018-04-10T09:36:58.155Z,47.00
2018-04-10T09:39:31.780Z,47.80
2018-04-10T09:42:05.684Z,47.61
2018-04-10T09:44:39.237Z,47.24
2018-04-10T09:47:12.863Z,47.76
2018-04-10T09:49:47.244Z,48.04
2018-04-10T09:52:22.144Z,48.04
2018-04-10T09:54:57.150Z,48.47
2018-04-10T09:57:31.404Z,47.26
2018-04-10T10:00:05.167Z,45.95
2018-04-10T10:02:39.114Z,45.72
2018-04-10T10:05:12.879Z,45.06
2018-04-10T10:07:47.667Z,44.16
2018-04-10T10:10:22.075Z,43.10
2018-04-10T10:12:55.949Z,43.22
2018-04-10T10:15:29.992Z,44.19
2018-04-10T10:18:04.924Z,45.42
2018-04-10T10:20:39.104Z,43.76
2018-04-10T10:23:13.337Z,44.08
2018-04-10T10:25:47.072Z,42.37
2018-04-10T10:28:20.920Z,42.07
2018-04-10T10:30:54.668Z,42.01
2018-04-10T10:33:28.366Z,42.34
2018-04-10T10:36:01.852Z,41.81
2018-04-10T10:38:35.672Z,40.98
2018-04-10T10:41:09.311Z,42.68
2018-04-10T10:43:43.112Z,43.37
2018-04-10T10:46:16.959Z,43.91
2018-04-10T10:48:50.633Z,44.36
2018-04-10T10:51:24.198Z,42.91
2018-04-10T10:53:57.748Z,43.06
2018-04-10T10:56:31.482Z,44.87
2018-04-10T10:59:05.106Z,43.92
2018-04-10T11:01:39.011Z,43.81
2018-04-10T11:04:12.731Z,43.11
2018-04-10T11:06:46.558Z,43.05
2018-04-10T11:09:20.604Z,41.57
2018-04-10T11:11:54.678Z,41.92
2018-04-10T11:14:28.544Z,42.74
2018-04-10T11:17:02.552Z,43.26
2018-04-10T11:19:36.540Z,44.22
2018-04-10T11:22:10.201Z,45.81
2018-04-10T11:24:43.999Z,44.77
2018-04-10T11:27:17.680Z,43.99
2018-04-10T11:29:51.438Z,43.61
2018-04-10T11:32:25.271Z,42.62
2018-04-10T11:34:59.239Z,42.90
2018-04-10T11:37:32.804Z,43.93
2018-04-10T11:40:06.511Z,42.62
2018-04-10T11:42:40.391Z,45.24
2018-04-10T11:45:14.329Z,45.06
2018-04-10T11:47:47.858Z,43.57
2018-04-10T11:50:21.590Z,44.44
2018-04-10T11:52:55.202Z,44.25
2018-04-10T11:55:28.708Z,44.89
2018-04-10T11:58:02.459Z,44.23
2018-04-10T12:00:36.311Z,44.99
2018-04-10T12:03:10.066Z,45.85
2018-04-10T12:05:44.596Z,46.19
2018-04-10T12:08:18.390Z,44.52
2018-04-10T12:10:52.192Z,45.37
2018-04-10T12:13:26.067Z,47.52
2018-04-10T12:15:59.703Z,46.63
2018-04-10T12:18:33.716Z,46.48
2018-04-10T12:21:07.615Z,45.54
2018-04-10T12:23:41.679Z,46.51
2018-04-10T12:26:15.879Z,46.19
2018-04-10T12:28:50.135Z,46.67
2018-04-10T12:31:24.216Z,46.34
2018-04-10T12:33:58.095Z,46.93
2018-04-10T12:36:32.473Z,48.10
2018-04-10T12:39:06.625Z,48.41
2018-04-10T12:41:41.013Z,48.78
2018-04-10T12:44:15.398Z,49.78
2018-04-10T12:46:49.620Z,49.87
2018-04-10T12:49:23.451Z,49.15
2018-04-10T12:51:57.167Z,48.90
2018-04-10T12:54:30.955Z,49.47
2018-04-10T12:57:04.470Z,49.36
2018-04-10T12:59:38.353Z,48.76
2018-04-10T13:02:11.933Z,48.59
2018-04-10T13:04:45.614Z,50.01
2018-04-10T13:07:19.294Z,48.67
2018-04-10T13:09:52.961Z,48.43
2018-04-10T13:12:26.743Z,47.26
2018-04-10T13:15:00.520Z,48.95
2018-04-10T13:17:34.282Z,47.74
2018-04-10T13:20:07.891Z,47.25
2018-04-10T13:22:41.699Z,47.63
2018-04-10T13:25:15.518Z,46.58
2018-04-10T13:27:49.532Z,47.75
2018-04-10T13:30:23.715Z,46.15
2018-04-10T13:32:57.713Z,47.80
2018-04-10T13:35:31.596Z,49.53
2018-04-10T13:38:05.678Z,48.78
2018-04-10T13:40:40.104Z,48.47
2018-04-10T13:43:14.893Z,49.28
2018-04-10T13:45:48.911Z,49.92
2018-04-10T13:48:22.763Z,49.78
2018-04-10T13:50:56.667Z,50.15
2018-04-10T13:53:30.660Z,50.69
2018-04-10T13:56:04.460Z,50.81
2018-04-10T13:58:38.359Z,50.88
2018-04-10T14:01:12.205Z,51.81
2018-04-10T14:03:46.044Z,51.84
2018-04-10T14:06:19.846Z,51.99
2018-04-10T14:08:53.855Z,52.92
2018-04-10T14:11:27.448Z,52.11
2018-04-10T14:14:01.218Z,51.73
2018-04-10T14:16:35.075Z,51.62
2018-04-10T14:19:08.916Z,51.71
2018-04-10T14:21:42.755Z,50.47
2018-04-10T14:24:16.427Z,51.97
2018-04-10T14:26:50.315Z,53.47
2018-04-10T14:29:24.033Z,57.56
2018-04-10T14:31:57.755Z,55.73
2018-04-10T14:34:31.643Z,57.04
2018-04-10T14:37:05.279Z,56.61
2018-04-10T14:39:39.088Z,58.63
2018-04-10T14:42:12.903Z,58.81
2018-04-10T14:44:46.948Z,57.79
2018-04-10T14:47:20.804Z,59.28
2018-04-10T14:49:54.520Z,59.30
2018-04-10T14:52:28.188Z,59.73
2018-04-10T14:55:02.525Z,60.31
2018-04-10T14:57:36.566Z,60.17
2018-04-10T15:00:10.548Z,60.89
2018-04-10T15:02:44.314Z,61.71
2018-04-10T15:05:18.511Z,64.74
2018-04-10T15:07:52.289Z,65.98
2018-04-10T15:10:26.548Z,67.04
2018-04-10T15:13:00.265Z,67.06
2018-04-10T15:15:34.090Z,67.75
2018-04-10T15:18:07.866Z,67.39
2018-04-10T15:20:41.514Z,66.62
2018-04-10T15:23:15.172Z,67.59
2018-04-10T15:25:48.921Z,68.44
2018-04-10T15:28:22.607Z,67.34
2018-04-10T15:30:56.448Z,68.55
2018-04-10T15:33:30.047Z,68.42
2018-04-10T15:36:03.630Z,68.19
2018-04-10T15:38:37.296Z,69.43
2018-04-10T15:41:11.134Z,69.57
2018-04-10T15:43:44.984Z,70.13
2018-04-10T15:46:18.619Z,69.04
2018-04-10T15:48:53.092Z,69.57
2018-04-10T15:51:26.832Z,69.00
2018-04-10T15:54:00.716Z,69.17
2018-04-10T15:56:34.664Z,71.42
2018-04-10T15:59:08.943Z,69.97
2018-04-10T16:01:43.264Z,71.45
2018-04-10T16:04:17.113Z,71.58
2018-04-10T16:06:50.951Z,71.00
2018-04-10T16:09:25.299Z,70.62
2018-04-10T16:11:58.826Z,71.70
2018-04-10T16:14:32.629Z,71.80
2018-04-10T16:17:07.000Z,71.33
2018-04-10T16:19:40.706Z,72.55
2018-04-10T16:22:14.535Z,72.87
2018-04-10T16:24:48.363Z,71.66
2018-04-10T16:27:22.567Z,72.24
2018-04-10T16:29:56.552Z,72.09
2018-04-10T16:32:30.323Z,71.96
2018-04-10T16:35:05.184Z,71.40
2018-04-10T16:37:38.963Z,72.22
2018-04-10T16:40:14.991Z,71.65
2018-04-10T16:42:48.823Z,72.01
2018-04-10T16:45:22.351Z,72.85
2018-04-10T16:47:56.301Z,75.37
2018-04-10T16:50:30.011Z,74.33
2018-04-10T16:53:04.412Z,74.45
2018-04-10T16:55:37.880Z,75.22
2018-04-10T16:58:12.283Z,75.48
2018-04-10T17:00:40.269Z,74.72
2018-04-10T17:03:08.247Z,72.76
2018-04-10T17:05:36.228Z,73.86
2018-04-10T17:08:04.212Z,73.86
2018-04-10T17:10:32.219Z,73.86
2018-04-10T17:13:00.796Z,74.06
2018-04-10T17:15:28.885Z,74.06
2018-04-10T17:17:57.509Z,75.26
2018-04-10T17:20:25.713Z,76.06
2018-04-10T17:22:53.741Z,77.34
2018-04-10T17:25:21.755Z,75.37
2018-04-10T17:27:49.758Z,76.83
2018-04-10T17:30:17.759Z,76.82
2018-04-10T17:32:45.765Z,75.54
2018-04-10T17:35:13.752Z,76.23
2018-04-10T17:37:42.156Z,77.11
2018-04-10T17:40:10.144Z,76.82
2018-04-10T17:42:38.153Z,75.99
2018-04-10T17:45:06.153Z,75.52
2018-04-10T17:47:34.163Z,75.49
2018-04-10T17:50:02.191Z,75.64
2018-04-10T17:52:30.182Z,75.44
2018-04-10T17:54:58.235Z,75.67
2018-04-10T17:57:26.336Z,75.97
2018-04-10T17:59:54.352Z,74.54
2018-04-10T18:02:22.329Z,74.68
2018-04-10T18:04:50.400Z,75.83
2018-04-10T18:07:19.213Z,75.36
2018-04-10T18:09:47.218Z,74.92
2018-04-10T18:12:15.199Z,75.24
2018-04-10T18:14:43.179Z,75.81
2018-04-10T18:17:11.164Z,75.78
2018-04-10T18:19:39.369Z,76.23
2018-04-10T18:22:07.364Z,77.63
2018-04-10T18:24:35.336Z,76.55
2018-04-10T18:27:03.316Z,76.44
2018-04-10T18:29:31.367Z,76.43
2018-04-10T18:31:59.343Z,76.15
2018-04-10T18:34:27.331Z,77.65
2018-04-10T18:36:55.335Z,77.76
2018-04-10T18:39:23.314Z,77.47
2018-04-10T18:41:51.325Z,76.99
2018-04-10T18:44:19.300Z,76.87
2018-04-10T18:46:47.682Z,76.34
2018-04-10T18:49:15.667Z,77.25
2018-04-10T18:51:43.666Z,77.23
2018-04-10T18:54:11.804Z,76.63
2018-04-10T18:56:39.784Z,76.05
2018-04-10T18:59:07.831Z,77.27
2018-04-10T19:01:35.853Z,76.68
2018-04-10T19:04:03.841Z,77.98
2018-04-10T19:06:31.820Z,78.06
2018-04-10T19:08:59.965Z,77.93
2018-04-10T19:11:28.005Z,78.41
2018-04-10T19:13:56.059Z,77.63
2018-04-10T19:16:44.665Z,78.27
2018-04-10T19:19:12.701Z,77.54
2018-04-10T19:21:40.724Z,77.86
2018-04-10T19:24:08.782Z,77.24
2018-04-10T19:26:36.782Z,77.94
2018-04-10T19:29:04.768Z,76.96
2018-04-10T19:31:32.791Z,78.75
2018-04-10T19:34:00.812Z,76.48
2018-04-10T19:36:28.848Z,76.06
2018-04-10T19:38:56.979Z,76.87
2018-04-10T19:41:25.005Z,76.94
2018-04-10T19:43:53.159Z,78.45
2018-04-10T19:46:21.874Z,77.53
2018-04-10T19:48:49.856Z,77.08
2018-04-10T19:51:17.847Z,78.08
2018-04-10T19:53:45.847Z,78.97
2018-04-10T19:56:13.856Z,77.62
2018-04-10T19:58:43.029Z,77.08
2018-04-10T20:01:11.013Z,77.91
2018-04-10T20:03:38.989Z,76.93
2018-04-10T20:06:07.263Z,77.87
2018-04-10T20:08:35.439Z,77.81
2018-04-10T20:11:03.499Z,77.82
2018-04-10T20:13:31.503Z,77.82
2018-04-10T20:15:59.496Z,77.67
2018-04-10T20:18:27.501Z,78.12
2018-04-10T20:20:55.464Z,78.40
2018-04-10T20:23:23.646Z,79.08
2018-04-10T20:25:52.405Z,77.53
2018-04-10T20:28:20.387Z,77.08
2018-04-10T20:30:48.368Z,77.66
2018-04-10T20:33:16.364Z,76.70
2018-04-10T20:35:44.372Z,78.14
2018-04-10T20:38:12.371Z,76.76
2018-04-10T20:40:40.398Z,77.58
2018-04-10T20:43:08.616Z,77.66
2018-04-10T20:45:36.617Z,77.47
2018-04-10T20:48:05.092Z,78.19
2018-04-10T20:50:33.074Z,76.97
2018-04-10T20:53:01.133Z,77.23
2018-04-10T20:55:29.140Z,77.08
2018-04-10T20:57:57.149Z,77.28
2018-04-10T21:00:25.140Z,78.54
2018-04-10T21:02:53.193Z,77.99
2018-04-10T21:05:21.185Z,78.45
2018-04-10T21:07:49.164Z,77.72
2018-04-10T21:10:17.287Z,77.27
2018-04-10T21:12:45.284Z,77.72
2018-04-10T21:15:13.287Z,77.55
2018-04-10T21:17:41.284Z,77.34
2018-04-10T21:20:09.334Z,77.24
2018-04-10T21:22:37.778Z,78.08
2018-04-10T21:25:05.902Z,78.79
2018-04-10T21:27:33.912Z,78.34
2018-04-10T21:30:01.982Z,78.53
2018-04-10T21:32:29.975Z,80.20
2018-04-10T21:34:58.028Z,79.34
2018-04-10T21:37:26.125Z,79.75
2018-04-10T21:39:54.178Z,80.16
2018-04-10T21:42:22.172Z,79.46
2018-04-10T21:44:50.156Z,78.95
2018-04-10T21:47:18.186Z,78.24
2018-04-10T21:49:46.253Z,78.45
2018-04-10T21:52:14.285Z,78.66
2018-04-10T21:54:42.284Z,78.05
2018-04-10T21:57:10.340Z,78.23
2018-04-10T21:59:38.375Z,77.80
2018-04-10T22:02:06.972Z,77.87
2018-04-10T22:04:35.736Z,78.56
2018-04-10T22:07:03.795Z,78.39
2018-04-10T22:09:31.976Z,77.79
2018-04-10T22:11:59.980Z,78.40
2018-04-10T22:14:28.020Z,78.48
2018-04-10T22:16:56.006Z,78.85
2018-04-10T22:19:24.031Z,78.79
2018-04-10T22:21:52.135Z,79.45
2018-04-10T22:24:20.132Z,78.49
2018-04-10T22:26:48.143Z,78.44
2018-04-10T22:29:16.438Z,78.88
2018-04-10T22:31:44.527Z,78.50
2018-04-10T22:34:12.488Z,79.36
2018-04-10T22:36:40.510Z,77.97
2018-04-10T22:39:08.497Z,78.15
2018-04-10T22:41:36.477Z,78.01
2018-04-10T22:44:04.488Z,78.57
2018-04-10T22:46:32.592Z,79.11
2018-04-10T22:49:00.692Z,79.04
2018-04-10T22:51:28.666Z,77.83
2018-04-10T22:53:56.660Z,78.71
2018-04-10T22:56:24.660Z,78.51
2018-04-10T22:58:52.648Z,79.20
2018-04-10T23:01:20.657Z,79.78
2018-04-10T23:03:48.733Z,79.38
2018-04-10T23:06:17.544Z,79.33
2018-04-10T23:08:45.562Z,79.68
2018-04-10T23:11:13.789Z,79.58
2018-04-10T23:13:41.781Z,78.82
2018-04-10T23:16:09.771Z,78.66
2018-04-10T23:18:37.814Z,78.49
2018-04-10T23:21:05.889Z,78.31
2018-04-10T23:23:34.034Z,79.07
2018-04-10T23:26:02.025Z,78.51
2018-04-10T23:28:30.095Z,77.95
2018-04-10T23:30:58.091Z,78.37
2018-04-10T23:33:26.108Z,78.22
2018-04-10T23:35:54.141Z,78.46
2018-04-10T23:38:22.169Z,79.71
2018-04-10T23:40:50.154Z,78.61
2018-04-10T23:43:18.160Z,78.50
2018-04-10T23:45:46.157Z,78.25
2018-04-10T23:48:14.171Z,78.85
2018-04-10T23:50:42.156Z,78.80
2018-04-10T23:53:10.217Z,78.70
2018-04-10T23:55:38.280Z,79.87
2018-04-10T23:58:06.264Z,79.62
